createdAt,value
2019-01-06T00:00:16.006Z,101412.07
2019-01-06T00:06:03.432Z,101417.35
2019-01-06T00:08:51.407Z,101413.81
2019-01-06T00:11:52.264Z,101404.91
2019-01-06T00:14:59.567Z,101412.56
2019-01-06T00:18:06.765Z,101408.07
2019-01-06T00:20:54.934Z,101414.80
2019-01-06T00:23:42.773Z,101413.38
2019-01-06T00:26:30.837Z,101413.36
2019-01-06T00:29:37.944Z,101410.09
2019-01-06T00:32:44.967Z,101410.68
2019-01-06T00:35:33.150Z,101410.22
2019-01-06T00:38:21.308Z,101402.53
2019-01-06T00:41:09.376Z,101412.92
2019-01-06T00:43:57.203Z,101408.86
2019-01-06T00:46:45.313Z,101411.08
2019-01-06T00:49:33.542Z,101407.88
2019-01-06T00:52:40.666Z,101406.03
2019-01-06T00:55:47.703Z,101408.20
2019-01-06T00:58:55.000Z,101411.88
2019-01-06T01:01:43.059Z,101413.16
2019-01-06T01:04:50.411Z,101416.98
2019-01-06T01:07:58.888Z,101420.68
2019-01-06T01:10:46.797Z,101424.34
2019-01-06T01:13:53.813Z,101420.47
2019-01-06T01:16:41.722Z,101423.17
2019-01-06T01:19:29.971Z,101426.74
2019-01-06T01:22:18.042Z,101422.16
2019-01-06T01:25:06.196Z,101426.16
2019-01-06T01:27:54.011Z,101425.23
2019-01-06T01:30:41.845Z,101428.43
2019-01-06T01:33:29.985Z,101425.72
2019-01-06T01:36:38.466Z,101433.51
2019-01-06T01:39:45.602Z,101435.36
2019-01-06T01:42:33.866Z,101430.89
2019-01-06T01:45:21.650Z,101435.62
2019-01-06T01:48:09.714Z,101433.23
2019-01-06T01:50:57.948Z,101436.45
2019-01-06T01:53:46.106Z,101433.78
2019-01-06T01:56:33.937Z,101438.83
2019-01-06T01:59:40.959Z,101437.88
2019-01-06T02:02:29.084Z,101429.42
2019-01-06T02:05:17.235Z,101445.19
2019-01-06T02:08:24.232Z,101433.91
2019-01-06T02:11:12.064Z,101441.91
2019-01-06T02:13:49.074Z,101441.16
2019-01-06T02:16:36.993Z,101433.63
2019-01-06T02:19:35.196Z,101426.13
2019-01-06T02:22:23.096Z,101432.91
2019-01-06T02:25:11.151Z,101434.35
2019-01-06T02:27:59.228Z,101431.25
2019-01-06T02:30:47.054Z,101429.38
2019-01-06T02:33:54.224Z,101425.47
2019-01-06T02:36:42.407Z,101433.09
2019-01-06T02:39:30.615Z,101438.02
2019-01-06T02:42:18.801Z,101441.48
2019-01-06T02:45:06.616Z,101430.67
2019-01-06T02:47:54.440Z,101442.84
2019-01-06T02:50:42.259Z,101440.94
2019-01-06T02:53:30.197Z,101449.28
2019-01-06T02:56:18.078Z,101445.48
2019-01-06T02:58:56.503Z,101447.33
2019-01-06T03:02:03.444Z,101445.88
2019-01-06T03:04:51.256Z,101458.41
2019-01-06T03:07:58.512Z,101453.94
2019-01-06T03:11:05.512Z,101447.18
2019-01-06T03:13:53.665Z,101446.92
2019-01-06T03:16:41.794Z,101441.55
2019-01-06T03:19:48.726Z,101451.59
2019-01-06T03:22:36.541Z,101453.63
2019-01-06T03:25:24.541Z,101448.84
2019-01-06T03:28:07.061Z,101442.09
2019-01-06T03:30:52.291Z,101444.79
2019-01-06T03:33:38.821Z,101443.44
2019-01-06T03:36:26.952Z,101446.14
2019-01-06T03:39:14.781Z,101435.77
2019-01-06T03:42:22.291Z,101444.30
2019-01-06T03:45:10.203Z,101432.57
2019-01-06T03:47:58.548Z,101427.39
2019-01-06T03:50:47.071Z,101422.36
2019-01-06T03:53:34.956Z,101416.23
2019-01-06T03:56:22.931Z,101416.80
2019-01-06T03:59:04.070Z,101416.75
2019-01-06T04:01:51.972Z,101418.26
2019-01-06T04:04:40.164Z,101420.41
2019-01-06T04:07:28.141Z,101421.69
2019-01-06T04:10:09.998Z,101420.69
2019-01-06T04:12:57.810Z,101422.91
2019-01-06T04:15:46.239Z,101417.85
2019-01-06T04:18:34.054Z,101416.59
2019-01-06T04:21:22.307Z,101416.95
2019-01-06T04:24:31.340Z,101415.23
2019-01-06T04:27:38.666Z,101416.50
2019-01-06T04:30:27.171Z,101407.99
2019-01-06T04:33:15.071Z,101421.42
2019-01-06T04:36:22.097Z,101420.02
2019-01-06T04:42:18.615Z,101424.09
2019-01-06T04:45:06.425Z,101424.07
2019-01-06T04:47:54.327Z,101433.05
2019-01-06T04:50:41.645Z,101422.58
2019-01-06T04:53:29.858Z,101420.82
2019-01-06T04:56:17.683Z,101422.58
2019-01-06T04:59:05.497Z,101420.34
2019-01-06T05:02:12.756Z,101424.77
2019-01-06T05:05:00.576Z,101413.58
2019-01-06T05:07:48.530Z,101427.67
2019-01-06T05:10:36.364Z,101425.40
2019-01-06T05:13:24.524Z,101427.31
2019-01-06T05:16:12.664Z,101428.26
2019-01-06T05:19:00.741Z,101427.98
2019-01-06T05:21:48.621Z,101428.52
2019-01-06T05:24:55.560Z,101429.44
2019-01-06T05:27:43.640Z,101428.67
2019-01-06T05:30:31.527Z,101433.75
2019-01-06T05:33:19.905Z,101437.78
2019-01-06T05:36:08.043Z,101443.09
2019-01-06T05:38:55.890Z,101441.27
2019-01-06T05:41:43.699Z,101442.52
2019-01-06T05:44:31.521Z,101437.49
2019-01-06T05:47:19.337Z,101441.83
2019-01-06T05:50:07.421Z,101436.48
2019-01-06T05:52:55.476Z,101432.91
2019-01-06T05:55:43.649Z,101441.83
2019-01-06T05:58:31.819Z,101442.38
2019-01-06T06:01:32.404Z,101443.23
2019-01-06T06:07:11.365Z,101453.28
2019-01-06T06:09:49.874Z,101457.65
2019-01-06T06:12:37.758Z,101454.05
2019-01-06T06:15:25.755Z,101455.81
2019-01-06T06:18:13.926Z,101460.47
2019-01-06T06:21:01.998Z,101458.23
2019-01-06T06:24:09.515Z,101464.52
2019-01-06T06:26:57.651Z,101461.39
2019-01-06T06:32:36.357Z,101468.02
2019-01-06T06:35:24.329Z,101465.27
2019-01-06T06:38:12.683Z,101464.42
2019-01-06T06:41:00.511Z,101465.83
2019-01-06T06:43:48.342Z,101466.74
2019-01-06T06:46:36.541Z,101473.98
2019-01-06T06:49:24.604Z,101468.98
2019-01-06T06:52:13.038Z,101477.49
2019-01-06T06:55:01.495Z,101476.20
2019-01-06T06:58:27.670Z,101487.50
2019-01-06T07:01:48.095Z,101486.69
2019-01-06T07:04:36.178Z,101487.09
2019-01-06T07:07:24.074Z,101488.55
2019-01-06T07:10:12.133Z,101495.33
2019-01-06T07:13:00.311Z,101499.83
2019-01-06T07:16:07.496Z,101503.96
2019-01-06T07:18:55.638Z,101506.68
2019-01-06T07:21:43.449Z,101511.64
2019-01-06T07:24:50.978Z,101511.73
2019-01-06T07:27:28.344Z,101522.54
2019-01-06T07:30:16.879Z,101515.67
2019-01-06T07:33:05.288Z,101523.77
2019-01-06T07:35:53.672Z,101522.88
2019-01-06T07:39:00.933Z,101530.56
2019-01-06T07:41:49.283Z,101535.96
2019-01-06T07:44:37.111Z,101542.71
2019-01-06T07:47:25.296Z,101543.11
2019-01-06T07:50:32.313Z,101538.98
2019-01-06T07:53:20.453Z,101534.45
2019-01-06T07:56:08.537Z,101542.56
2019-01-06T07:58:56.659Z,101552.02
2019-01-06T08:01:45.039Z,101549.73
2019-01-06T08:04:59.717Z,101545.22
2019-01-06T08:07:47.603Z,101555.05
2019-01-06T08:10:35.470Z,101552.33
2019-01-06T08:13:23.366Z,101560.45
2019-01-06T08:16:02.368Z,101564.60
2019-01-06T08:18:50.855Z,101560.45
2019-01-06T08:21:38.997Z,101564.81
2019-01-06T08:24:27.148Z,101567.12
2019-01-06T08:27:15.357Z,101566.62
2019-01-06T08:30:03.516Z,101576.91
2019-01-06T08:32:51.920Z,101573.63
2019-01-06T08:35:40.900Z,101585.31
2019-01-06T08:38:29.087Z,101582.97
2019-01-06T08:41:17.421Z,101588.45
2019-01-06T08:44:05.232Z,101592.13
2019-01-06T08:47:12.763Z,101595.28
2019-01-06T08:50:00.982Z,101587.09
2019-01-06T08:52:49.051Z,101585.61
2019-01-06T08:55:37.431Z,101587.58
2019-01-06T08:58:44.731Z,101590.73
2019-01-06T09:01:32.544Z,101595.15
2019-01-06T09:04:20.676Z,101602.87
2019-01-06T09:07:09.222Z,101598.38
2019-01-06T09:09:57.040Z,101602.47
2019-01-06T09:12:45.374Z,101601.55
2019-01-06T09:15:33.749Z,101608.84
2019-01-06T09:18:21.656Z,101609.25
2019-01-06T09:21:09.548Z,101611.45
2019-01-06T09:24:16.563Z,101615.46
2019-01-06T09:27:04.647Z,101611.30
2019-01-06T09:29:52.801Z,101621.25
2019-01-06T09:32:40.685Z,101627.63
2019-01-06T09:35:28.656Z,101630.25
2019-01-06T09:38:35.933Z,101626.59
2019-01-06T09:41:42.934Z,101634.63
2019-01-06T09:44:30.759Z,101622.88
2019-01-06T09:47:18.966Z,101621.95
2019-01-06T09:50:06.797Z,101627.28
2019-01-06T09:53:08.838Z,101625.02
2019-01-06T09:56:16.417Z,101627.67
2019-01-06T09:59:23.697Z,101633.03
2019-01-06T10:02:30.942Z,101633.87
2019-01-06T10:05:37.883Z,101622.59
2019-01-06T10:08:25.948Z,101623.84
2019-01-06T10:11:14.060Z,101626.18
2019-01-06T10:14:02.720Z,101630.65
2019-01-06T10:17:11.134Z,101632.36
2019-01-06T10:19:59.326Z,101630.09
2019-01-06T10:23:06.624Z,101629.97
2019-01-06T10:25:54.746Z,101628.14
2019-01-06T10:28:42.600Z,101622.63
2019-01-06T10:31:49.611Z,101633.37
2019-01-06T10:34:56.627Z,101631.44
2019-01-06T10:37:44.776Z,101628.15
2019-01-06T10:40:52.369Z,101616.80
2019-01-06T10:43:40.262Z,101619.86
2019-01-06T10:46:28.447Z,101623.41
2019-01-06T10:49:09.909Z,101620.16
2019-01-06T10:52:16.927Z,101622.84
2019-01-06T10:55:04.841Z,101617.45
2019-01-06T10:58:11.876Z,101619.34
2019-01-06T11:04:11.742Z,101621.59
2019-01-06T11:06:59.584Z,101610.69
2019-01-06T11:10:07.104Z,101614.68
2019-01-06T11:13:14.117Z,101613.23
2019-01-06T11:16:02.646Z,101616.84
2019-01-06T11:18:50.826Z,101612.70
2019-01-06T11:21:38.802Z,101619.30
2019-01-06T11:24:46.080Z,101621.46
2019-01-06T11:27:34.528Z,101619.97
2019-01-06T11:30:22.793Z,101622.19
2019-01-06T11:33:10.692Z,101624.98
2019-01-06T11:36:18.371Z,101625.61
2019-01-06T11:39:06.660Z,101620.76
2019-01-06T11:42:13.762Z,101616.23
2019-01-06T11:45:20.698Z,101622.52
2019-01-06T11:48:08.654Z,101619.67
2019-01-06T11:50:57.086Z,101619.16
2019-01-06T11:53:37.340Z,101619.57
2019-01-06T11:56:25.568Z,101609.80
2019-01-06T11:59:13.400Z,101610.84
2019-01-06T12:02:01.714Z,101611.67
2019-01-06T12:05:08.751Z,101608.02
2019-01-06T12:08:15.771Z,101613.46
2019-01-06T12:11:03.886Z,101612.95
2019-01-06T12:13:51.731Z,101605.28
2019-01-06T12:16:39.625Z,101602.14
2019-01-06T12:19:33.770Z,101601.28
2019-01-06T12:22:36.431Z,101602.70
2019-01-06T12:25:24.870Z,101601.40
2019-01-06T12:28:32.221Z,101607.70
2019-01-06T12:31:20.563Z,101607.16
2019-01-06T12:34:27.820Z,101606.27
2019-01-06T12:37:34.822Z,101608.45
2019-01-06T12:40:42.237Z,101603.50
2019-01-06T12:43:30.427Z,101607.50
2019-01-06T12:46:37.804Z,101607.48
2019-01-06T12:49:37.213Z,101607.36
2019-01-06T12:52:45.684Z,101613.08
2019-01-06T12:55:52.698Z,101613.00
2019-01-06T12:58:40.881Z,101627.45
2019-01-06T13:01:29.116Z,101619.16
2019-01-06T13:04:17.200Z,101619.56
2019-01-06T13:07:05.397Z,101634.64
2019-01-06T13:09:53.641Z,101627.96
2019-01-06T13:13:00.654Z,101634.12
2019-01-06T13:15:48.554Z,101640.18
2019-01-06T13:18:56.018Z,101629.25
2019-01-06T13:21:44.906Z,101637.28
2019-01-06T13:24:52.179Z,101638.42
2019-01-06T13:27:40.586Z,101646.95
2019-01-06T13:30:48.695Z,101660.56
2019-01-06T13:33:36.586Z,101654.84
2019-01-06T13:36:45.320Z,101664.81
2019-01-06T13:39:52.318Z,101667.86
2019-01-06T13:42:40.837Z,101664.33
2019-01-06T13:45:29.058Z,101664.27
2019-01-06T13:48:17.432Z,101672.64
2019-01-06T13:51:24.465Z,101672.26
2019-01-06T13:54:31.470Z,101670.45
2019-01-06T13:57:38.527Z,101669.94
2019-01-06T14:00:45.582Z,101675.72
2019-01-06T14:03:52.861Z,101683.84
2019-01-06T14:06:41.070Z,101674.83
2019-01-06T14:09:29.469Z,101679.32
2019-01-06T14:12:17.673Z,101681.55
2019-01-06T14:15:06.055Z,101677.48
2019-01-06T14:17:54.419Z,101679.27
2019-01-06T14:20:42.236Z,101684.57
2019-01-06T14:23:30.366Z,101683.14
2019-01-06T14:26:37.316Z,101687.11
2019-01-06T14:29:44.673Z,101691.28
2019-01-06T14:32:51.954Z,101696.22
2019-01-06T14:35:40.138Z,101698.22
2019-01-06T14:38:28.460Z,101696.70
2019-01-06T14:41:16.617Z,101704.95
2019-01-06T14:44:24.685Z,101707.19
2019-01-06T14:47:13.216Z,101711.98
2019-01-06T14:50:01.688Z,101709.95
2019-01-06T14:52:44.512Z,101712.20
2019-01-06T14:55:32.683Z,101716.13
2019-01-06T14:58:21.257Z,101716.94
2019-01-06T15:01:09.958Z,101721.39
2019-01-06T15:03:57.852Z,101717.22
2019-01-06T15:06:45.928Z,101720.31
2019-01-06T15:09:34.558Z,101723.34
2019-01-06T15:12:22.479Z,101726.00
2019-01-06T15:15:23.420Z,101725.53
2019-01-06T15:18:30.421Z,101728.24
2019-01-06T15:21:18.592Z,101724.19
2019-01-06T15:24:06.743Z,101722.83
2019-01-06T15:26:55.507Z,101735.39
2019-01-06T15:29:43.922Z,101734.49
2019-01-06T15:32:51.179Z,101742.10
2019-01-06T15:35:38.994Z,101738.05
2019-01-06T15:38:46.334Z,101738.89
2019-01-06T15:41:34.828Z,101740.45
2019-01-06T15:44:37.643Z,101738.69
2019-01-06T15:47:25.736Z,101739.17
2019-01-06T15:50:14.176Z,101745.05
2019-01-06T15:53:02.248Z,101743.78
2019-01-06T15:55:50.613Z,101741.88
2019-01-06T15:58:38.744Z,101755.55
2019-01-06T16:01:45.766Z,101760.55
2019-01-06T16:04:52.784Z,101761.53
2019-01-06T16:08:00.117Z,101757.02
2019-01-06T16:11:07.394Z,101756.60
2019-01-06T16:13:55.521Z,101755.30
2019-01-06T16:17:02.936Z,101757.95
2019-01-06T16:19:50.759Z,101760.25
2019-01-06T16:22:57.698Z,101763.94
2019-01-06T16:25:45.946Z,101767.91
2019-01-06T16:28:34.128Z,101769.03
2019-01-06T16:31:41.126Z,101769.03
2019-01-06T16:34:28.951Z,101771.30
2019-01-06T16:37:31.780Z,101780.34
2019-01-06T16:40:13.589Z,101776.20
2019-01-06T16:43:01.400Z,101781.44
2019-01-06T16:45:49.229Z,101781.55
2019-01-06T16:48:37.718Z,101772.55
2019-01-06T16:51:25.531Z,101771.13
2019-01-06T16:54:19.727Z,101767.19
2019-01-06T16:57:05.342Z,101762.65
2019-01-06T16:59:56.044Z,101761.27
2019-01-06T17:02:42.793Z,101763.41
2019-01-06T17:05:48.771Z,101769.34
2019-01-06T17:08:36.835Z,101775.59
2019-01-06T17:11:43.803Z,101770.00
2019-01-06T17:14:31.678Z,101770.59
2019-01-06T17:17:19.899Z,101769.66
2019-01-06T17:20:07.976Z,101762.34
2019-01-06T17:23:14.975Z,101770.44
2019-01-06T17:26:02.876Z,101772.66
2019-01-06T17:28:50.690Z,101768.14
2019-01-06T17:31:38.871Z,101773.48
2019-01-06T17:34:26.932Z,101777.97
2019-01-06T17:37:38.305Z,101767.20
2019-01-06T17:40:44.633Z,101770.28
2019-01-06T17:43:51.633Z,101773.53
2019-01-06T17:46:58.657Z,101780.86
2019-01-06T17:49:46.474Z,101778.15
2019-01-06T17:52:34.882Z,101778.15
2019-01-06T17:55:42.469Z,101778.56
2019-01-06T17:58:30.831Z,101776.75
2019-01-06T18:01:18.730Z,101784.88
2019-01-06T18:04:06.793Z,101782.59
2019-01-06T18:07:05.416Z,101785.28
2019-01-06T18:09:53.235Z,101784.36
2019-01-06T18:13:00.247Z,101784.80
2019-01-06T18:15:48.499Z,101786.07
2019-01-06T18:18:36.670Z,101794.62
2019-01-06T18:21:39.071Z,101793.76
2019-01-06T18:24:26.974Z,101792.42
2019-01-06T18:27:34.286Z,101786.20
2019-01-06T18:33:30.645Z,101796.59
2019-01-06T18:36:37.869Z,101804.23
2019-01-06T18:39:46.779Z,101800.55
2019-01-06T18:42:45.192Z,101788.52
2019-01-06T18:45:52.405Z,101815.38
2019-01-06T18:48:40.483Z,101811.72
2019-01-06T18:51:47.774Z,101808.95
2019-01-06T18:54:55.017Z,101805.33
2019-01-06T18:58:02.281Z,101806.66
2019-01-06T19:01:09.290Z,101811.61
2019-01-06T19:03:57.447Z,101809.80
2019-01-06T19:06:58.212Z,101816.16
2019-01-06T19:09:46.464Z,101815.32
2019-01-06T19:12:34.672Z,101818.53
2019-01-06T19:15:41.935Z,101810.13
2019-01-06T19:18:29.793Z,101825.52
2019-01-06T19:21:18.031Z,101819.70
2019-01-06T19:24:25.060Z,101826.11
2019-01-06T19:27:33.880Z,101822.96
2019-01-06T19:30:21.785Z,101825.66
2019-01-06T19:33:09.602Z,101826.54
2019-01-06T19:35:57.777Z,101825.14
2019-01-06T19:38:46.363Z,101826.87
2019-01-06T19:41:34.507Z,101828.19
2019-01-06T19:44:41.788Z,101830.43
2019-01-06T19:47:29.998Z,101831.78
2019-01-06T19:50:37.104Z,101829.08
2019-01-06T19:53:25.641Z,101825.41
2019-01-06T19:56:13.850Z,101836.33
2019-01-06T19:59:20.739Z,101838.14
2019-01-06T20:05:00.589Z,101832.89
2019-01-06T20:07:48.425Z,101834.73
2019-01-06T20:10:36.234Z,101832.95
2019-01-06T20:13:24.388Z,101840.98
2019-01-06T20:16:31.444Z,101843.66
2019-01-06T20:19:10.586Z,101834.64
2019-01-06T20:22:17.838Z,101833.30
2019-01-06T20:25:05.942Z,101835.09
2019-01-06T20:27:54.033Z,101835.09
2019-01-06T20:31:00.961Z,101834.61
2019-01-06T20:33:49.669Z,101837.24
2019-01-06T20:36:56.946Z,101834.52
2019-01-06T20:39:45.444Z,101836.33
2019-01-06T20:42:33.787Z,101840.39
2019-01-06T20:45:21.621Z,101837.20
2019-01-06T20:48:10.184Z,101834.05
2019-01-06T20:50:58.609Z,101843.05
2019-01-06T20:53:46.929Z,101840.78
2019-01-06T20:56:54.039Z,101836.41
2019-01-06T20:59:38.965Z,101840.97
2019-01-06T21:02:27.030Z,101847.76
2019-01-06T21:05:15.123Z,101841.86
2019-01-06T21:08:03.016Z,101847.28
2019-01-06T21:11:10.305Z,101852.25
2019-01-06T21:14:17.315Z,101850.01
2019-01-06T21:17:05.413Z,101850.91
2019-01-06T21:19:53.488Z,101851.81
2019-01-06T21:22:41.972Z,101861.29
2019-01-06T21:25:30.200Z,101854.53
2019-01-06T21:28:18.659Z,101852.73
2019-01-06T21:31:06.866Z,101855.30
2019-01-06T21:33:54.980Z,101853.77
2019-01-06T21:36:43.134Z,101858.86
2019-01-06T21:39:50.390Z,101851.66
2019-01-06T21:42:38.550Z,101853.02
2019-01-06T21:45:26.558Z,101855.88
2019-01-06T21:48:14.390Z,101859.11
2019-01-06T21:51:02.806Z,101870.72
2019-01-06T21:53:50.918Z,101872.64
2019-01-06T21:56:39.000Z,101865.48
2019-01-06T21:59:27.413Z,101871.87
2019-01-06T22:02:15.828Z,101869.05
2019-01-06T22:05:23.133Z,101862.47
2019-01-06T22:08:30.097Z,101860.17
2019-01-06T22:11:17.915Z,101866.09
2019-01-06T22:14:05.748Z,101860.06
2019-01-06T22:16:53.930Z,101871.27
2019-01-06T22:19:42.097Z,101868.64
2019-01-06T22:22:30.169Z,101865.94
2019-01-06T22:25:18.564Z,101865.84
2019-01-06T22:28:25.838Z,101863.17
2019-01-06T22:31:14.019Z,101871.28
2019-01-06T22:34:02.097Z,101862.72
2019-01-06T22:36:49.929Z,101863.67
2019-01-06T22:39:37.763Z,101857.66
2019-01-06T22:42:25.578Z,101855.12
2019-01-06T22:45:13.414Z,101855.52
2019-01-06T22:48:20.417Z,101857.94
2019-01-06T22:51:08.325Z,101862.89
2019-01-06T22:53:56.145Z,101862.50
2019-01-06T22:56:44.314Z,101866.87
2019-01-06T22:59:51.549Z,101864.72
2019-01-06T23:02:39.625Z,101858.27
2019-01-06T23:05:46.637Z,101857.83
2019-01-06T23:08:34.755Z,101867.77
2019-01-06T23:11:41.701Z,101868.77
2019-01-06T23:14:48.720Z,101865.25
2019-01-06T23:17:36.957Z,101864.80
2019-01-06T23:20:45.730Z,101870.56
2019-01-06T23:23:33.892Z,101862.89
2019-01-06T23:26:21.958Z,101860.14
2019-01-06T23:29:10.370Z,101869.58
2019-01-06T23:31:58.435Z,101872.80
2019-01-06T23:35:05.716Z,101877.75
2019-01-06T23:37:53.905Z,101876.46
2019-01-06T23:40:41.811Z,101870.09
2019-01-06T23:43:29.713Z,101877.81
2019-01-06T23:46:17.536Z,101874.63
2019-01-06T23:49:23.869Z,101880.03
2019-01-06T23:52:31.473Z,101875.88
2019-01-06T23:55:19.554Z,101878.14
2019-01-06T23:58:07.679Z,101873.06
